Ana Sayfa
METAR-TAF:

METAR-TAF

Havaalanları :

Hakkâri Yüksekova Selahaddin Eyyubi Havalimanı

Yüksekova, Türkiye

Enlem: 37-33-06N, Boylam: 44-14-01E, yükseklik: 1950 m

Güncel hava durumu gözlemi

Rapor saat 12:50 UTC de 3 saat ve 52 dakika önce yapıldı.
Rüzgar doğu/kuzeydoğudan 14 kt ve 27 kt'a kadar ani rüzgarlar
Sıcaklık 31°C
Nem 15%
Basınç 1021 hPa
Görüş mesafesi 10 km veya daha fazla
4000 ft yükseklikte parçalı bulutlu

METAR: LTCW 201250Z 06014G27KT 9999 SCT040 31/01 Q1021

Saat: 19:42 (16:42 UTC)

Tahmin

Rapor saat 13:40 UTC de 3 saat ve 2 dakika önce yapıldı.
Ayın 20'si saat 15 UTC'den ayın 20'si saat 24 UTC'ye kadar geçerli Tahmin
Rüzgar doğu/kuzeydoğudan 12 kt
Görüş mesafesi 10 km veya daha fazla
4000 ft yükseklikte parçalı bulutlu

TAF: LTCW 201340Z 2015/2024 06012KT 9999 SCT040

4.000'den fazla havaalanı için hava durumu gözlemleri ve tahminleri (METAR ve TAF raporları).

Kullanılabilir istasyonlar harita üzerinde sarı ve kırmızı noktalarla gösterilir.

İstasyonun adını görmek için fareyi noktanın üzerinde gezdirin.

Sonrasında hava gözlem ve tahminlerini görmek için tıklayın.

Haritayı değiştirmek için: yaklaştırmak için siyah artı işaretli yeşil düğmeye ve uzaklaştırmak için de eksi işaretli düğmeye hızla tıklayın; bitişik haritalar için yeşil okları kullanın.


METAR-TAF: